createdAt,value
2018-07-29T00:00:27.946Z,0.00
2018-07-29T00:01:27.926Z,0.00
2018-07-29T00:02:27.891Z,0.00
2018-07-29T00:03:27.923Z,0.00
2018-07-29T00:04:27.851Z,0.00
2018-07-29T00:05:27.827Z,0.00
2018-07-29T00:06:27.799Z,0.00
2018-07-29T00:07:27.794Z,0.00
2018-07-29T00:08:27.809Z,0.00
2018-07-29T00:09:27.735Z,0.00
2018-07-29T00:10:27.711Z,0.00
2018-07-29T00:11:27.690Z,0.00
2018-07-29T00:12:27.667Z,0.00
2018-07-29T00:13:27.704Z,0.00
2018-07-29T00:14:27.626Z,0.00
2018-07-29T00:15:27.601Z,0.00
2018-07-29T00:16:27.575Z,0.00
2018-07-29T00:17:27.552Z,0.00
2018-07-29T00:18:27.572Z,0.00
2018-07-29T00:19:27.512Z,0.00
2018-07-29T00:20:27.486Z,0.00
2018-07-29T00:21:27.517Z,0.00
2018-07-29T00:22:27.439Z,0.00
2018-07-29T00:23:27.415Z,0.00
2018-07-29T00:24:27.398Z,0.00
2018-07-29T00:25:27.378Z,0.00
2018-07-29T00:26:27.390Z,0.00
2018-07-29T00:27:27.324Z,0.00
2018-07-29T00:28:27.312Z,0.00
2018-07-29T00:29:27.278Z,0.00
2018-07-29T00:30:27.254Z,0.00
2018-07-29T00:31:27.278Z,0.00
2018-07-29T00:32:27.211Z,0.00
2018-07-29T00:33:28.129Z,0.00
2018-07-29T00:34:27.175Z,0.00
2018-07-29T00:35:27.138Z,0.00
2018-07-29T00:36:27.170Z,0.00
2018-07-29T00:37:27.094Z,0.00
2018-07-29T00:38:27.073Z,0.00
2018-07-29T00:39:27.046Z,0.00
2018-07-29T00:40:27.029Z,0.00
2018-07-29T00:41:27.049Z,0.00
2018-07-29T00:42:26.976Z,0.00
2018-07-29T00:43:26.953Z,0.00
2018-07-29T00:44:26.982Z,0.00
2018-07-29T00:45:26.915Z,0.00
2018-07-29T00:46:26.910Z,0.00
2018-07-29T00:47:26.920Z,0.00
2018-07-29T00:48:26.842Z,0.00
2018-07-29T00:49:26.822Z,0.00
2018-07-29T00:50:26.800Z,0.00
2018-07-29T00:51:26.774Z,0.00
2018-07-29T00:52:26.798Z,0.00
2018-07-29T00:53:26.729Z,0.00
2018-07-29T00:54:26.752Z,0.00
2018-07-29T00:55:26.683Z,0.00
2018-07-29T00:56:26.671Z,0.00
2018-07-29T00:57:26.690Z,0.00
2018-07-29T00:58:26.617Z,0.00
2018-07-29T00:59:26.643Z,0.00
2018-07-29T01:00:26.570Z,0.00
2018-07-29T01:01:26.553Z,0.00
2018-07-29T01:02:26.576Z,0.00
2018-07-29T01:03:26.512Z,0.00
2018-07-29T01:04:26.486Z,0.00
2018-07-29T01:05:26.461Z,0.00
2018-07-29T01:06:26.437Z,0.00
2018-07-29T01:07:26.463Z,0.00
2018-07-29T01:08:26.394Z,0.00
2018-07-29T01:09:26.376Z,0.00
2018-07-29T01:10:26.349Z,0.00
2018-07-29T01:11:26.332Z,0.00
2018-07-29T01:12:26.349Z,0.00
2018-07-29T01:13:26.281Z,0.00
2018-07-29T01:14:26.263Z,0.00
2018-07-29T01:15:26.287Z,0.00
2018-07-29T01:16:26.219Z,0.00
2018-07-29T01:17:26.239Z,0.00
2018-07-29T01:18:26.165Z,0.00
2018-07-29T01:19:26.143Z,0.00
2018-07-29T01:20:26.122Z,0.00
2018-07-29T01:21:26.149Z,0.00
2018-07-29T01:22:26.118Z,0.00
2018-07-29T01:23:26.046Z,0.00
2018-07-29T01:24:26.023Z,0.00
2018-07-29T01:25:25.998Z,0.00
2018-07-29T01:26:25.982Z,0.00
2018-07-29T01:27:25.995Z,0.00
2018-07-29T01:28:25.933Z,0.00
2018-07-29T01:29:25.952Z,0.00
2018-07-29T01:30:25.882Z,0.00
2018-07-29T01:31:25.856Z,0.00
2018-07-29T01:32:25.835Z,0.00
2018-07-29T01:33:25.857Z,0.00
2018-07-29T01:34:25.781Z,0.00
2018-07-29T01:35:25.757Z,0.00
2018-07-29T01:36:25.732Z,0.00
2018-07-29T01:37:25.711Z,0.00
2018-07-29T01:38:25.733Z,0.00
2018-07-29T01:39:25.731Z,0.00
2018-07-29T01:40:25.641Z,0.00
2018-07-29T01:41:25.610Z,0.00
2018-07-29T01:42:25.632Z,0.00
2018-07-29T01:43:25.564Z,0.00
2018-07-29T01:44:25.636Z,0.00
2018-07-29T01:45:25.515Z,0.00
2018-07-29T01:46:25.492Z,0.00
2018-07-29T01:47:25.474Z,0.00
2018-07-29T01:48:25.445Z,0.00
2018-07-29T01:49:25.478Z,0.00
2018-07-29T01:50:25.394Z,0.00
2018-07-29T01:51:25.376Z,0.00
2018-07-29T01:52:25.347Z,0.00
2018-07-29T01:53:25.323Z,0.00
2018-07-29T01:54:25.342Z,0.00
2018-07-29T01:55:25.274Z,0.00
2018-07-29T01:56:25.248Z,0.00
2018-07-29T01:57:25.268Z,0.00
2018-07-29T01:58:25.199Z,0.00
2018-07-29T01:59:25.183Z,0.00
2018-07-29T02:00:25.152Z,0.00
2018-07-29T02:01:25.124Z,0.00
2018-07-29T02:02:25.162Z,0.00
2018-07-29T02:03:25.088Z,0.00
2018-07-29T02:04:25.053Z,0.00
2018-07-29T02:05:25.038Z,0.00
2018-07-29T02:06:25.009Z,0.00
2018-07-29T02:07:25.044Z,0.00
2018-07-29T02:08:24.961Z,0.00
2018-07-29T02:09:24.941Z,0.00
2018-07-29T02:10:24.916Z,0.00
2018-07-29T02:11:24.889Z,0.00
2018-07-29T02:12:24.918Z,0.00
2018-07-29T02:13:24.838Z,0.00
2018-07-29T02:14:24.831Z,0.00
2018-07-29T02:15:24.792Z,0.00
2018-07-29T02:16:24.769Z,0.00
2018-07-29T02:17:24.796Z,0.00
2018-07-29T02:18:24.727Z,0.00
2018-07-29T02:19:24.758Z,0.00
2018-07-29T02:20:24.676Z,0.00
2018-07-29T02:21:24.652Z,0.00
2018-07-29T02:22:24.625Z,0.00
2018-07-29T02:23:24.607Z,0.00
2018-07-29T02:24:24.633Z,0.00
2018-07-29T02:25:24.586Z,0.00
2018-07-29T02:26:24.535Z,0.00
2018-07-29T02:27:24.509Z,0.00
2018-07-29T02:28:24.484Z,0.00
2018-07-29T02:29:24.512Z,0.00
2018-07-29T02:30:24.440Z,0.00
2018-07-29T02:31:24.422Z,0.00
2018-07-29T02:32:24.391Z,0.00
2018-07-29T02:33:24.372Z,0.00
2018-07-29T02:34:24.711Z,0.00
2018-07-29T02:35:24.323Z,0.00
2018-07-29T02:36:24.295Z,0.00
2018-07-29T02:37:24.318Z,0.00
2018-07-29T02:38:24.257Z,0.00
2018-07-29T02:39:24.229Z,0.00
2018-07-29T02:40:24.265Z,0.00
2018-07-29T02:41:24.190Z,0.00
2018-07-29T02:42:24.198Z,0.00
2018-07-29T02:43:24.136Z,0.00
2018-07-29T02:44:24.173Z,0.00
2018-07-29T02:45:24.088Z,0.00
2018-07-29T02:46:24.080Z,0.00
2018-07-29T02:47:24.053Z,0.00
2018-07-29T02:48:24.015Z,0.00
2018-07-29T02:49:24.043Z,0.00
2018-07-29T02:50:24.057Z,0.00
2018-07-29T02:51:23.948Z,0.00
2018-07-29T02:52:23.920Z,0.00
2018-07-29T02:53:23.895Z,0.00
2018-07-29T02:54:23.884Z,0.00
2018-07-29T02:55:23.896Z,0.00
2018-07-29T02:56:23.835Z,0.00
2018-07-29T02:57:23.802Z,0.00
2018-07-29T02:58:23.790Z,0.00
2018-07-29T02:59:23.828Z,0.00
2018-07-29T03:00:23.774Z,0.00
2018-07-29T03:01:23.711Z,0.00
2018-07-29T03:02:23.686Z,0.00
2018-07-29T03:03:23.664Z,0.00
2018-07-29T03:04:23.680Z,0.00
2018-07-29T03:05:23.667Z,0.00
2018-07-29T03:06:23.596Z,0.00
2018-07-29T03:07:23.559Z,0.00
2018-07-29T03:08:23.540Z,0.00
2018-07-29T03:09:23.510Z,0.00
2018-07-29T03:10:23.527Z,0.00
2018-07-29T03:11:23.511Z,0.00
2018-07-29T03:12:23.439Z,5.63
2018-07-29T03:13:23.414Z,5.63
2018-07-29T03:14:23.391Z,5.63
2018-07-29T03:15:23.378Z,5.63
2018-07-29T03:16:23.387Z,5.63
2018-07-29T03:17:23.320Z,5.63
2018-07-29T03:18:23.298Z,5.63
2018-07-29T03:19:23.285Z,5.63
2018-07-29T03:20:23.251Z,11.25
2018-07-29T03:21:23.271Z,11.25
2018-07-29T03:22:23.199Z,11.25
2018-07-29T03:23:23.176Z,11.25
2018-07-29T03:24:23.151Z,16.88
2018-07-29T03:25:23.122Z,16.88
2018-07-29T03:26:23.157Z,16.88
2018-07-29T03:27:23.072Z,22.50
2018-07-29T03:28:23.053Z,22.50
2018-07-29T03:29:23.026Z,22.50
2018-07-29T03:30:23.003Z,22.50
2018-07-29T03:31:23.032Z,28.13
2018-07-29T03:32:22.952Z,28.13
2018-07-29T03:33:22.930Z,28.13
2018-07-29T03:34:22.905Z,28.13
2018-07-29T03:35:22.884Z,33.75
2018-07-29T03:36:22.916Z,33.75
2018-07-29T03:37:22.831Z,33.75
2018-07-29T03:38:22.810Z,33.75
2018-07-29T03:39:22.780Z,39.38
2018-07-29T03:40:22.759Z,39.38
2018-07-29T03:41:22.780Z,39.38
2018-07-29T03:42:22.712Z,39.38
2018-07-29T03:43:22.727Z,45.00
2018-07-29T03:44:22.663Z,45.00
2018-07-29T03:45:22.639Z,45.00
2018-07-29T03:46:22.615Z,45.00
2018-07-29T03:47:22.633Z,50.63
2018-07-29T03:48:22.608Z,50.63
2018-07-29T03:49:22.541Z,50.63
2018-07-29T03:50:22.519Z,56.25
2018-07-29T03:51:22.491Z,56.25
2018-07-29T03:52:22.514Z,56.25
2018-07-29T03:53:22.487Z,61.88
2018-07-29T03:54:22.418Z,61.88
2018-07-29T03:55:22.394Z,67.50
2018-07-29T03:56:22.366Z,67.50
2018-07-29T03:57:22.391Z,73.13
2018-07-29T03:58:22.320Z,73.13
2018-07-29T03:59:22.300Z,73.13
2018-07-29T04:00:22.270Z,73.13
2018-07-29T04:01:22.250Z,78.75
2018-07-29T04:02:22.271Z,78.75
2018-07-29T04:03:22.198Z,78.75
2018-07-29T04:04:22.224Z,78.75
2018-07-29T04:05:22.149Z,84.38
2018-07-29T04:06:22.127Z,84.38
2018-07-29T04:07:22.143Z,90.00
2018-07-29T04:08:22.077Z,101.25
2018-07-29T04:09:22.065Z,101.25
2018-07-29T04:10:22.079Z,101.25
2018-07-29T04:11:22.042Z,101.25
2018-07-29T04:12:22.031Z,106.88
2018-07-29T04:13:21.954Z,112.50
2018-07-29T04:14:21.932Z,118.13
2018-07-29T04:15:21.988Z,118.13
2018-07-29T04:16:21.881Z,118.13
2018-07-29T04:17:21.856Z,112.50
2018-07-29T04:18:21.835Z,118.13
2018-07-29T04:19:21.820Z,123.75
2018-07-29T04:20:21.830Z,129.38
2018-07-29T04:21:21.761Z,135.00
2018-07-29T04:22:21.797Z,146.25
2018-07-29T04:23:21.714Z,151.88
2018-07-29T04:24:21.688Z,168.75
2018-07-29T04:25:21.668Z,174.38
2018-07-29T04:26:21.733Z,180.00
2018-07-29T04:27:21.632Z,180.00
2018-07-29T04:28:21.594Z,185.63
2018-07-29T04:29:21.569Z,191.25
2018-07-29T04:30:21.541Z,196.88
2018-07-29T04:31:21.572Z,196.88
2018-07-29T04:32:21.538Z,196.88
2018-07-29T04:33:22.179Z,196.88
2018-07-29T04:34:21.443Z,202.50
2018-07-29T04:35:21.419Z,202.50
2018-07-29T04:36:21.398Z,208.13
2018-07-29T04:37:21.428Z,208.13
2018-07-29T04:38:21.360Z,213.75
2018-07-29T04:39:21.323Z,213.75
2018-07-29T04:40:21.297Z,213.75
2018-07-29T04:41:21.313Z,219.38
2018-07-29T04:42:21.298Z,219.38
2018-07-29T04:43:21.227Z,225.00
2018-07-29T04:44:21.203Z,236.25
2018-07-29T04:45:21.241Z,230.63
2018-07-29T04:46:21.168Z,225.00
2018-07-29T04:47:21.179Z,230.63
2018-07-29T04:48:21.105Z,230.63
2018-07-29T04:49:21.087Z,236.25
2018-07-29T04:50:21.061Z,236.25
2018-07-29T04:51:21.117Z,236.25
2018-07-29T04:52:21.055Z,241.88
2018-07-29T04:53:20.986Z,241.88
2018-07-29T04:54:20.986Z,247.50
2018-07-29T04:55:20.939Z,253.13
2018-07-29T04:56:20.965Z,258.75
2018-07-29T04:57:20.895Z,258.75
2018-07-29T04:58:20.875Z,264.38
2018-07-29T04:59:20.854Z,270.00
2018-07-29T05:00:20.826Z,270.00
2018-07-29T05:01:20.855Z,275.63
2018-07-29T05:02:20.773Z,275.63
2018-07-29T05:03:20.791Z,275.63
2018-07-29T05:04:20.747Z,292.50
2018-07-29T05:05:20.700Z,309.38
2018-07-29T05:06:20.711Z,309.38
2018-07-29T05:07:20.715Z,320.63
2018-07-29T05:08:20.631Z,292.50
2018-07-29T05:09:20.619Z,298.13
2018-07-29T05:10:20.585Z,303.75
2018-07-29T05:11:21.095Z,326.25
2018-07-29T05:12:20.747Z,343.13
2018-07-29T05:13:20.556Z,337.50
2018-07-29T05:14:20.503Z,410.63
2018-07-29T05:15:20.464Z,596.25
2018-07-29T05:16:21.188Z,376.88
2018-07-29T05:17:20.428Z,365.63
2018-07-29T05:18:20.440Z,343.13
2018-07-29T05:19:20.413Z,348.75
2018-07-29T05:20:20.349Z,343.13
2018-07-29T05:21:20.335Z,388.13
2018-07-29T05:22:20.300Z,489.38
2018-07-29T05:23:20.322Z,500.63
2018-07-29T05:24:20.309Z,540.00
2018-07-29T05:25:20.231Z,388.13
2018-07-29T05:26:20.214Z,495.00
2018-07-29T05:27:20.188Z,630.00
2018-07-29T05:28:20.161Z,348.75
2018-07-29T05:29:20.196Z,810.00
2018-07-29T05:30:20.162Z,500.63
2018-07-29T05:31:20.107Z,455.63
2018-07-29T05:32:20.070Z,410.63
2018-07-29T05:33:20.061Z,365.63
2018-07-29T05:34:20.029Z,360.00
2018-07-29T05:35:20.044Z,360.00
2018-07-29T05:36:19.986Z,354.38
2018-07-29T05:37:20.004Z,360.00
2018-07-29T05:38:19.942Z,360.00
2018-07-29T05:39:19.910Z,360.00
2018-07-29T05:40:19.932Z,365.63
2018-07-29T05:41:19.869Z,371.25
2018-07-29T05:42:19.844Z,365.63
2018-07-29T05:43:19.871Z,365.63
2018-07-29T05:44:19.796Z,365.63
2018-07-29T05:45:19.795Z,376.88
2018-07-29T05:46:19.752Z,382.50
2018-07-29T05:47:19.792Z,382.50
2018-07-29T05:48:19.708Z,399.38
2018-07-29T05:49:19.729Z,438.75
2018-07-29T05:50:19.667Z,450.00
2018-07-29T05:51:19.641Z,433.13
2018-07-29T05:52:19.674Z,427.50
2018-07-29T05:53:19.597Z,500.63
2018-07-29T05:54:19.572Z,483.75
2018-07-29T05:55:19.554Z,455.63
2018-07-29T05:56:19.580Z,472.50
2018-07-29T05:57:19.519Z,483.75
2018-07-29T05:58:19.482Z,511.88
2018-07-29T05:59:19.459Z,500.63
2018-07-29T06:00:19.439Z,495.00
2018-07-29T06:01:19.467Z,528.75
2018-07-29T06:02:19.453Z,523.13
2018-07-29T06:03:19.368Z,562.50
2018-07-29T06:04:19.354Z,545.63
2018-07-29T06:05:19.325Z,540.00
2018-07-29T06:06:19.302Z,585.00
2018-07-29T06:07:19.341Z,534.38
2018-07-29T06:08:19.303Z,556.88
2018-07-29T06:09:19.296Z,579.38
2018-07-29T06:10:19.216Z,658.13
2018-07-29T06:11:19.200Z,540.00
2018-07-29T06:12:19.173Z,568.13
2018-07-29T06:13:19.166Z,663.75
2018-07-29T06:14:19.188Z,686.25
2018-07-29T06:15:19.120Z,585.00
2018-07-29T06:16:19.087Z,613.13
2018-07-29T06:17:19.083Z,528.75
2018-07-29T06:18:19.046Z,641.25
2018-07-29T06:19:19.070Z,601.88
2018-07-29T06:20:19.009Z,585.00
2018-07-29T06:21:19.026Z,618.75
2018-07-29T06:22:18.972Z,573.75
2018-07-29T06:23:18.936Z,528.75
2018-07-29T06:24:18.926Z,427.50
2018-07-29T06:25:18.905Z,455.63
2018-07-29T06:26:18.939Z,455.63
2018-07-29T06:27:18.868Z,427.50
2018-07-29T06:28:19.708Z,416.25
2018-07-29T06:29:18.811Z,399.38
2018-07-29T06:30:18.793Z,382.50
2018-07-29T06:31:18.846Z,438.75
2018-07-29T06:32:18.794Z,450.00
2018-07-29T06:33:18.733Z,427.50
2018-07-29T06:34:18.705Z,461.25
2018-07-29T06:35:18.695Z,495.00
2018-07-29T06:36:18.667Z,399.38
2018-07-29T06:37:18.687Z,450.00
2018-07-29T06:38:18.629Z,562.50
2018-07-29T06:39:18.698Z,450.00
2018-07-29T06:40:18.589Z,438.75
2018-07-29T06:41:18.602Z,579.38
2018-07-29T06:42:18.538Z,568.13
2018-07-29T06:43:18.556Z,534.38
2018-07-29T06:44:18.494Z,517.50
2018-07-29T06:45:18.476Z,630.00
2018-07-29T06:46:19.215Z,714.38
2018-07-29T06:47:18.430Z,562.50
2018-07-29T06:48:18.454Z,517.50
2018-07-29T06:49:18.394Z,562.50
2018-07-29T06:50:18.373Z,596.25
2018-07-29T06:51:18.347Z,759.38
2018-07-29T06:52:18.326Z,860.63
2018-07-29T06:53:18.352Z,731.25
2018-07-29T06:54:18.287Z,765.00
2018-07-29T06:55:18.268Z,697.50
2018-07-29T06:56:18.293Z,691.88
2018-07-29T06:57:18.232Z,703.13
2018-07-29T06:58:18.259Z,753.75
2018-07-29T06:59:18.184Z,742.50
2018-07-29T07:00:18.165Z,686.25
2018-07-29T07:01:18.143Z,675.00
2018-07-29T07:02:18.123Z,663.75
2018-07-29T07:03:18.177Z,635.63
2018-07-29T07:04:18.084Z,596.25
2018-07-29T07:05:18.724Z,573.75
2018-07-29T07:06:18.046Z,528.75
2018-07-29T07:07:18.069Z,523.13
2018-07-29T07:08:18.056Z,534.38
2018-07-29T07:09:17.989Z,579.38
2018-07-29T07:10:18.007Z,534.38
2018-07-29T07:11:17.941Z,534.38
2018-07-29T07:12:17.962Z,551.25
2018-07-29T07:13:17.896Z,590.63
2018-07-29T07:14:17.881Z,607.50
2018-07-29T07:15:17.865Z,607.50
2018-07-29T07:16:17.884Z,618.75
2018-07-29T07:17:17.816Z,630.00
2018-07-29T07:18:17.796Z,641.25
2018-07-29T07:19:17.781Z,641.25
2018-07-29T07:20:17.752Z,630.00
2018-07-29T07:21:17.776Z,646.88
2018-07-29T07:22:17.759Z,646.88
2018-07-29T07:23:17.696Z,618.75
2018-07-29T07:24:17.683Z,618.75
2018-07-29T07:25:17.656Z,624.38
2018-07-29T07:26:17.803Z,607.50
2018-07-29T07:27:17.642Z,601.88
2018-07-29T07:28:17.594Z,585.00
2018-07-29T07:29:17.569Z,579.38
2018-07-29T07:30:17.604Z,562.50
2018-07-29T07:31:17.529Z,551.25
2018-07-29T07:32:17.514Z,545.63
2018-07-29T07:33:17.492Z,545.63
2018-07-29T07:34:17.473Z,540.00
2018-07-29T07:35:17.494Z,551.25
2018-07-29T07:36:17.430Z,562.50
2018-07-29T07:37:17.410Z,545.63
2018-07-29T07:38:17.390Z,540.00
2018-07-29T07:39:17.371Z,534.38
2018-07-29T07:40:17.404Z,534.38
2018-07-29T07:41:17.328Z,556.88
2018-07-29T07:42:17.316Z,579.38
2018-07-29T07:43:17.286Z,585.00
2018-07-29T07:44:17.274Z,596.25
2018-07-29T07:45:17.295Z,590.63
2018-07-29T07:46:17.271Z,590.63
2018-07-29T07:47:17.208Z,590.63
2018-07-29T07:48:17.210Z,596.25
2018-07-29T07:49:17.167Z,568.13
2018-07-29T07:50:17.143Z,511.88
2018-07-29T07:51:17.182Z,495.00
2018-07-29T07:52:17.104Z,506.25
2018-07-29T07:53:17.099Z,495.00
2018-07-29T07:54:17.165Z,495.00
2018-07-29T07:55:17.049Z,534.38
2018-07-29T07:56:17.071Z,562.50
2018-07-29T07:57:17.003Z,585.00
2018-07-29T07:58:17.637Z,596.25
2018-07-29T07:59:16.971Z,596.25
2018-07-29T08:00:16.937Z,590.63
2018-07-29T08:01:16.970Z,607.50
2018-07-29T08:02:16.948Z,624.38
2018-07-29T08:03:16.880Z,618.75
2018-07-29T08:04:16.876Z,613.13
2018-07-29T08:05:16.837Z,613.13
2018-07-29T08:06:16.881Z,646.88
2018-07-29T08:07:16.796Z,686.25
2018-07-29T08:08:16.786Z,691.88
2018-07-29T08:09:16.761Z,652.50
2018-07-29T08:10:16.743Z,663.75
2018-07-29T08:11:16.762Z,725.63
2018-07-29T08:12:16.720Z,736.88
2018-07-29T08:13:16.722Z,686.25
2018-07-29T08:14:16.676Z,585.00
2018-07-29T08:15:16.634Z,585.00
2018-07-29T08:16:16.797Z,624.38
2018-07-29T08:17:16.646Z,669.38
2018-07-29T08:18:16.811Z,697.50
2018-07-29T08:19:16.602Z,663.75
2018-07-29T08:20:16.535Z,708.75
2018-07-29T08:21:16.521Z,720.00
2018-07-29T08:22:16.517Z,703.13
2018-07-29T08:23:16.489Z,669.38
2018-07-29T08:24:16.499Z,720.00
2018-07-29T08:25:16.497Z,675.00
2018-07-29T08:26:16.414Z,703.13
2018-07-29T08:27:16.399Z,618.75
2018-07-29T08:28:16.486Z,641.25
2018-07-29T08:29:16.359Z,601.88
2018-07-29T08:30:16.338Z,562.50
2018-07-29T08:31:16.327Z,579.38
2018-07-29T08:32:16.299Z,618.75
2018-07-29T08:33:16.320Z,652.50
2018-07-29T08:34:16.264Z,714.38
2018-07-29T08:35:16.253Z,742.50
2018-07-29T08:36:16.217Z,753.75
2018-07-29T08:37:16.281Z,781.88
2018-07-29T08:38:16.354Z,765.00
2018-07-29T08:39:16.207Z,776.25
2018-07-29T08:40:16.142Z,765.00
2018-07-29T08:41:16.121Z,736.88
2018-07-29T08:42:16.111Z,680.63
2018-07-29T08:43:16.092Z,641.25
2018-07-29T08:44:16.115Z,618.75
2018-07-29T08:45:16.093Z,596.25
2018-07-29T08:46:16.071Z,585.00
2018-07-29T08:47:16.026Z,579.38
2018-07-29T08:48:15.989Z,590.63
2018-07-29T08:49:16.007Z,596.25
2018-07-29T08:50:15.997Z,630.00
2018-07-29T08:51:15.934Z,680.63
2018-07-29T08:52:15.968Z,691.88
2018-07-29T08:53:15.893Z,697.50
2018-07-29T08:54:15.871Z,714.38
2018-07-29T08:55:15.906Z,731.25
2018-07-29T08:56:15.834Z,765.00
2018-07-29T08:57:15.814Z,742.50
2018-07-29T08:58:15.844Z,720.00
2018-07-29T08:59:15.778Z,708.75
2018-07-29T09:00:15.809Z,675.00
2018-07-29T09:01:15.779Z,635.63
2018-07-29T09:02:15.722Z,658.13
2018-07-29T09:03:15.701Z,652.50
2018-07-29T09:04:15.688Z,641.25
2018-07-29T09:05:15.663Z,585.00
2018-07-29T09:06:15.705Z,551.25
2018-07-29T09:07:15.632Z,528.75
2018-07-29T09:08:15.604Z,545.63
2018-07-29T09:09:15.589Z,590.63
2018-07-29T09:10:15.578Z,618.75
2018-07-29T09:11:15.591Z,658.13
2018-07-29T09:12:15.530Z,663.75
2018-07-29T09:13:15.507Z,641.25
2018-07-29T09:14:15.487Z,635.63
2018-07-29T09:15:15.473Z,613.13
2018-07-29T09:16:15.500Z,590.63
2018-07-29T09:17:15.430Z,641.25
2018-07-29T09:18:15.469Z,652.50
2018-07-29T09:19:15.429Z,641.25
2018-07-29T09:20:15.377Z,573.75
2018-07-29T09:21:15.357Z,528.75
2018-07-29T09:22:15.352Z,517.50
2018-07-29T09:23:15.360Z,545.63
2018-07-29T09:24:15.313Z,579.38
2018-07-29T09:25:15.282Z,607.50
2018-07-29T09:26:15.306Z,613.13
2018-07-29T09:27:15.240Z,663.75
2018-07-29T09:28:15.288Z,725.63
2018-07-29T09:29:15.205Z,725.63
2018-07-29T09:30:15.246Z,748.13
2018-07-29T09:31:15.168Z,697.50
2018-07-29T09:32:15.152Z,669.38
2018-07-29T09:33:15.130Z,590.63
2018-07-29T09:34:15.156Z,528.75
2018-07-29T09:35:15.091Z,438.75
2018-07-29T09:36:15.074Z,421.88
2018-07-29T09:37:15.099Z,393.75
2018-07-29T09:38:15.054Z,399.38
2018-07-29T09:39:15.017Z,399.38
2018-07-29T09:40:15.010Z,393.75
2018-07-29T09:41:14.979Z,388.13
2018-07-29T09:42:15.006Z,382.50
2018-07-29T09:43:14.939Z,376.88
2018-07-29T09:44:14.925Z,371.25
2018-07-29T09:45:15.025Z,365.63
2018-07-29T09:46:14.889Z,371.25
2018-07-29T09:47:14.865Z,376.88
2018-07-29T09:48:14.845Z,393.75
2018-07-29T09:49:14.827Z,393.75
2018-07-29T09:50:14.882Z,393.75
2018-07-29T09:51:14.793Z,399.38
2018-07-29T09:52:14.766Z,410.63
2018-07-29T09:53:14.748Z,410.63
2018-07-29T09:54:15.267Z,410.63
2018-07-29T09:55:14.758Z,410.63
2018-07-29T09:56:14.740Z,410.63
2018-07-29T09:57:14.671Z,416.25
2018-07-29T09:58:15.276Z,438.75
2018-07-29T09:59:14.632Z,450.00
2018-07-29T10:00:14.615Z,450.00
2018-07-29T10:01:14.645Z,444.38
2018-07-29T10:02:14.572Z,438.75
2018-07-29T10:03:14.557Z,427.50
2018-07-29T10:04:14.533Z,421.88
2018-07-29T10:05:14.517Z,433.13
2018-07-29T10:06:14.547Z,410.63
2018-07-29T10:07:14.525Z,405.00
2018-07-29T10:08:14.453Z,382.50
2018-07-29T10:09:14.483Z,354.38
2018-07-29T10:10:14.419Z,337.50
2018-07-29T10:11:14.407Z,337.50
2018-07-29T10:12:14.428Z,337.50
2018-07-29T10:13:14.361Z,343.13
2018-07-29T10:14:14.368Z,343.13
2018-07-29T10:15:14.320Z,343.13
2018-07-29T10:16:14.297Z,348.75
2018-07-29T10:17:14.325Z,354.38
2018-07-29T10:18:14.264Z,360.00
2018-07-29T10:19:14.239Z,365.63
2018-07-29T10:20:14.224Z,371.25
2018-07-29T10:21:14.772Z,382.50
2018-07-29T10:22:14.226Z,399.38
2018-07-29T10:23:14.162Z,388.13
2018-07-29T10:24:14.144Z,427.50
2018-07-29T10:25:14.173Z,410.63
2018-07-29T10:26:14.103Z,365.63
2018-07-29T10:27:14.133Z,348.75
2018-07-29T10:28:14.110Z,348.75
2018-07-29T10:29:14.049Z,343.13
2018-07-29T10:30:14.039Z,331.88
2018-07-29T10:31:14.007Z,331.88
2018-07-29T10:32:13.988Z,331.88
2018-07-29T10:33:14.017Z,331.88
2018-07-29T10:34:13.953Z,331.88
2018-07-29T10:35:13.938Z,326.25
2018-07-29T10:36:13.932Z,326.25
2018-07-29T10:37:13.895Z,326.25
2018-07-29T10:38:13.913Z,320.63
2018-07-29T10:39:13.853Z,315.00
2018-07-29T10:40:13.834Z,315.00
2018-07-29T10:41:14.778Z,309.38
2018-07-29T10:42:13.797Z,309.38
2018-07-29T10:43:13.834Z,309.38
2018-07-29T10:44:13.757Z,309.38
2018-07-29T10:45:13.745Z,303.75
2018-07-29T10:46:13.722Z,303.75
2018-07-29T10:47:13.732Z,298.13
2018-07-29T10:48:13.728Z,303.75
2018-07-29T10:49:14.298Z,298.13
2018-07-29T10:50:13.695Z,298.13
2018-07-29T10:51:13.624Z,298.13
2018-07-29T10:52:13.608Z,298.13
2018-07-29T10:53:14.284Z,298.13
2018-07-29T10:54:13.574Z,298.13
2018-07-29T10:55:13.591Z,298.13
2018-07-29T10:56:13.526Z,298.13
2018-07-29T10:57:13.507Z,298.13
2018-07-29T10:58:13.487Z,298.13
2018-07-29T10:59:13.465Z,298.13
2018-07-29T11:00:13.500Z,298.13
2018-07-29T11:01:13.429Z,298.13
2018-07-29T11:02:13.415Z,298.13
2018-07-29T11:03:13.391Z,298.13
2018-07-29T11:04:13.392Z,298.13
2018-07-29T11:05:13.910Z,303.75
2018-07-29T11:06:13.330Z,298.13
2018-07-29T11:07:13.315Z,298.13
2018-07-29T11:08:13.297Z,298.13
2018-07-29T11:09:13.323Z,298.13
2018-07-29T11:10:13.302Z,298.13
2018-07-29T11:11:13.283Z,298.13
2018-07-29T11:12:13.217Z,298.13
2018-07-29T11:13:13.203Z,298.13
2018-07-29T11:14:13.220Z,303.75
2018-07-29T11:15:13.162Z,303.75
2018-07-29T11:16:13.141Z,303.75
2018-07-29T11:17:13.176Z,303.75
2018-07-29T11:18:13.110Z,309.38
2018-07-29T11:19:13.139Z,298.13
2018-07-29T11:20:13.881Z,298.13
2018-07-29T11:21:13.136Z,298.13
2018-07-29T11:22:13.036Z,298.13
2018-07-29T11:23:13.054Z,298.13
2018-07-29T11:24:13.043Z,292.50
2018-07-29T11:25:12.983Z,292.50
2018-07-29T11:26:12.994Z,292.50
2018-07-29T11:27:12.936Z,292.50
2018-07-29T11:28:12.922Z,292.50
2018-07-29T11:29:12.891Z,286.88
2018-07-29T11:30:12.930Z,286.88
2018-07-29T11:31:12.873Z,286.88
2018-07-29T11:32:12.836Z,286.88
2018-07-29T11:33:12.823Z,286.88
2018-07-29T11:34:12.802Z,281.25
2018-07-29T11:35:12.849Z,281.25
2018-07-29T11:36:12.809Z,281.25
2018-07-29T11:37:12.787Z,281.25
2018-07-29T11:38:12.724Z,281.25
2018-07-29T11:39:12.704Z,281.25
2018-07-29T11:40:12.687Z,275.63
2018-07-29T11:41:12.747Z,281.25
2018-07-29T11:42:12.655Z,281.25
2018-07-29T11:43:12.659Z,281.25
2018-07-29T11:44:12.610Z,275.63
2018-07-29T11:45:12.594Z,275.63
2018-07-29T11:46:12.619Z,275.63
2018-07-29T11:47:12.554Z,275.63
2018-07-29T11:48:12.534Z,275.63
2018-07-29T11:49:12.516Z,275.63
2018-07-29T11:50:12.496Z,275.63
2018-07-29T11:51:12.520Z,275.63
2018-07-29T11:52:12.455Z,275.63
2018-07-29T11:53:12.448Z,275.63
2018-07-29T11:54:12.423Z,275.63
2018-07-29T11:55:12.406Z,275.63
2018-07-29T11:56:12.432Z,275.63
2018-07-29T11:57:12.414Z,275.63
2018-07-29T11:58:12.345Z,275.63
2018-07-29T11:59:12.333Z,275.63
2018-07-29T12:00:12.354Z,275.63
2018-07-29T12:01:12.326Z,275.63
2018-07-29T12:02:12.803Z,275.63
2018-07-29T12:03:12.249Z,275.63
2018-07-29T12:04:12.306Z,275.63
2018-07-29T12:05:12.256Z,275.63
2018-07-29T12:06:12.249Z,275.63
2018-07-29T12:07:12.176Z,275.63
2018-07-29T12:08:12.158Z,275.63
2018-07-29T12:09:12.137Z,275.63
2018-07-29T12:10:12.119Z,275.63
2018-07-29T12:11:12.199Z,275.63
2018-07-29T12:12:12.132Z,275.63
2018-07-29T12:13:12.061Z,275.63
2018-07-29T12:14:12.041Z,275.63
2018-07-29T12:15:12.030Z,275.63
2018-07-29T12:16:12.005Z,275.63
2018-07-29T12:17:12.057Z,275.63
2018-07-29T12:18:11.968Z,275.63
2018-07-29T12:19:11.990Z,275.63
2018-07-29T12:20:11.930Z,275.63
2018-07-29T12:21:11.916Z,275.63
2018-07-29T12:22:11.891Z,275.63
2018-07-29T12:23:11.874Z,275.63
2018-07-29T12:24:11.910Z,270.00
2018-07-29T12:25:11.836Z,270.00
2018-07-29T12:26:11.823Z,264.38
2018-07-29T12:27:11.799Z,270.00
2018-07-29T12:28:11.777Z,275.63
2018-07-29T12:29:11.822Z,270.00
2018-07-29T12:30:11.746Z,270.00
2018-07-29T12:31:11.726Z,270.00
2018-07-29T12:32:11.706Z,270.00
2018-07-29T12:33:11.693Z,270.00
2018-07-29T12:34:11.733Z,270.00
2018-07-29T12:35:11.688Z,270.00
2018-07-29T12:36:11.634Z,270.00
2018-07-29T12:37:11.634Z,275.63
2018-07-29T12:38:11.596Z,275.63
2018-07-29T12:39:11.622Z,275.63
2018-07-29T12:40:11.560Z,275.63
2018-07-29T12:41:11.610Z,275.63
2018-07-29T12:42:11.523Z,275.63